Time;durP1;ratioP1;P1;durP2;ratioP2;P2;SDS_P1;SDS_P2;PMS_P1;PMS_P2;Temp;Humidity;BMP_temperature;BMP_pressure;BME280_temperature;BME280_humidity;BME280_pressure;Samples;Min_cycle;Max_cycle;Signal;HPM_P1;HPM_P2
2022/04/27 00:02:09;;;;;;;17.40;10.07;;;3.80;99.90;;;;;;4969587;28;20042;-63
2022/04/27 00:04:34;;;;;;;18.77;9.95;;;3.80;99.90;;;;;;4973840;28;20050;-62
2022/04/27 00:07:02;;;;;;;15.05;9.38;;;3.70;99.90;;;;;;4974393;28;20039;-63
2022/04/27 00:09:28;;;;;;;17.90;9.93;;;3.60;99.90;;;;;;4962147;28;20043;-62
2022/04/27 00:11:56;;;;;;;17.67;10.25;;;3.70;99.90;;;;;;4963605;28;20050;-62
2022/04/27 00:14:23;;;;;;;19.98;10.63;;;3.70;99.90;;;;;;4974211;28;20050;-63
2022/04/27 00:16:49;;;;;;;14.43;9.05;;;3.60;99.90;;;;;;4965016;28;20063;-63
2022/04/27 00:19:15;;;;;;;15.18;9.57;;;3.60;99.90;;;;;;4961930;28;20560;-63
2022/04/27 00:21:40;;;;;;;17.50;9.65;;;3.60;99.90;;;;;;4973860;28;20039;-62
2022/04/27 00:24:06;;;;;;;16.75;10.15;;;3.50;99.90;;;;;;4971263;28;20038;-63
2022/04/27 00:26:31;;;;;;;16.65;9.93;;;3.60;99.90;;;;;;4960884;28;20031;-62
2022/04/27 00:28:57;;;;;;;17.02;10.18;;;3.50;99.90;;;;;;4973116;28;20038;-63
2022/04/27 00:31:24;;;;;;;17.05;9.63;;;3.50;99.90;;;;;;4973945;28;20041;-62
2022/04/27 00:33:50;;;;;;;16.40;9.73;;;3.50;99.90;;;;;;4969754;28;20089;-62
2022/04/27 00:36:16;;;;;;;14.50;9.27;;;3.50;99.90;;;;;;4971543;28;20074;-63
2022/04/27 00:38:41;;;;;;;14.32;8.18;;;3.40;99.90;;;;;;4973154;28;20082;-63
2022/04/27 00:41:07;;;;;;;49.38;10.10;;;3.30;99.90;;;;;;4966006;28;20042;-63
2022/04/27 00:43:38;;;;;;;25.25;10.55;;;3.30;99.90;;;;;;4967762;28;20038;-62
2022/04/27 00:46:04;;;;;;;44.30;7.68;;;3.30;99.90;;;;;;4966142;28;20089;-62
2022/04/27 00:48:29;;;;;;;19.33;11.50;;;3.40;99.90;;;;;;4969235;28;20070;-63
2022/04/27 00:50:56;;;;;;;19.52;11.25;;;3.30;99.90;;;;;;4972433;28;20041;-62
2022/04/27 00:53:22;;;;;;;21.30;11.43;;;3.50;99.90;;;;;;4964640;28;20042;-63
2022/04/27 00:55:47;;;;;;;18.10;10.80;;;3.40;99.90;;;;;;4974579;28;20089;-62
2022/04/27 00:58:15;;;;;;;20.15;11.88;;;3.50;99.90;;;;;;4959500;28;20129;-63
2022/04/27 01:00:40;;;;;;;21.70;11.20;;;3.50;99.90;;;;;;4967106;28;20045;-63
2022/04/27 01:03:06;;;;;;;21.95;12.18;;;3.50;99.90;;;;;;4973394;28;20494;-62
2022/04/27 01:05:32;;;;;;;21.50;12.38;;;3.50;99.90;;;;;;4974224;28;20701;-62
2022/04/27 01:08:00;;;;;;;26.00;13.13;;;3.50;99.90;;;;;;4964533;28;20026;-63
2022/04/27 01:10:27;;;;;;;22.30;12.82;;;3.50;99.90;;;;;;4971745;28;20045;-62
2022/04/27 01:12:54;;;;;;;19.60;12.63;;;3.50;99.90;;;;;;4973803;28;20042;-62
2022/04/27 01:15:33;;;;;;;24.20;12.02;;;3.40;99.90;;;;;;4960039;28;20031;-62
2022/04/27 01:18:00;;;;;;;21.35;11.57;;;3.30;99.90;;;;;;4959292;28;20038;-63
2022/04/27 01:20:44;;;;;;;18.10;11.35;;;3.20;99.90;;;;;;4973955;28;20045;-62
2022/04/27 01:23:11;;;;;;;18.65;11.35;;;3.10;99.90;;;;;;4962699;28;20078;-63
2022/04/27 01:25:48;;;;;;;17.40;11.23;;;3.10;99.90;;;;;;4964440;28;20035;-62
2022/04/27 01:28:19;;;;;;;12.60;8.90;;;3.10;99.90;;;;;;4966113;28;20058;-62
2022/04/27 01:30:46;;;;;;;13.98;9.70;;;2.90;99.90;;;;;;4962602;28;20043;-62
2022/04/27 01:33:12;;;;;;;19.25;9.18;;;2.80;99.90;;;;;;4964968;28;20126;-62
2022/04/27 01:35:40;;;;;;;16.73;9.73;;;2.70;99.90;;;;;;4973525;28;20070;-63
2022/04/27 01:38:07;;;;;;;13.27;8.75;;;2.70;99.90;;;;;;4972279;28;20050;-63
2022/04/27 01:40:33;;;;;;;19.58;10.57;;;2.50;99.90;;;;;;4968850;28;20047;-63
2022/04/27 01:42:58;;;;;;;17.23;10.10;;;2.50;99.90;;;;;;4969608;28;20039;-63
2022/04/27 01:45:24;;;;;;;55.40;10.93;;;2.50;99.90;;;;;;4973150;28;20397;-62
2022/04/27 01:47:52;;;;;;;29.88;10.40;;;2.50;99.90;;;;;;4967002;28;20122;-63
2022/04/27 01:50:18;;;;;;;13.10;9.30;;;2.50;99.90;;;;;;4965321;28;20066;-63
2022/04/27 01:55:27;;;;;;;250.55;16.42;;;2.40;99.90;;;;;;4973347;28;20043;-62
2022/04/27 01:57:54;;;;;;;90.00;11.38;;;2.40;99.90;;;;;;4963700;28;20383;-62
2022/04/27 02:00:21;;;;;;;293.52;15.52;;;2.40;99.90;;;;;;4972137;28;20038;-62
2022/04/27 02:02:47;;;;;;;49.65;8.60;;;2.20;99.90;;;;;;4972610;28;20516;-63
2022/04/27 02:05:13;;;;;;;109.88;11.30;;;2.20;99.90;;;;;;4963407;28;20046;-62
2022/04/27 02:07:38;;;;;;;42.58;12.93;;;2.20;99.90;;;;;;4966075;28;20035;-63
2022/04/27 02:10:06;;;;;;;20.98;12.50;;;2.20;99.90;;;;;;4973127;28;20043;-63
2022/04/27 02:12:32;;;;;;;22.67;13.30;;;2.30;99.90;;;;;;4968061;28;20378;-62
2022/04/27 02:14:58;;;;;;;23.95;12.65;;;2.30;99.90;;;;;;4970112;28;20046;-62
2022/04/27 02:17:24;;;;;;;24.92;12.45;;;2.40;99.90;;;;;;4972585;28;20042;-63
2022/04/27 02:19:50;;;;;;;21.35;12.77;;;2.40;99.90;;;;;;4971753;28;20557;-62
2022/04/27 02:22:15;;;;;;;20.95;13.38;;;2.30;99.90;;;;;;4966387;28;20169;-62
2022/04/27 02:24:41;;;;;;;23.10;13.48;;;2.30;99.90;;;;;;4971560;28;20034;-63
2022/04/27 02:27:07;;;;;;;23.63;13.48;;;2.30;99.90;;;;;;4972284;28;20081;-62
2022/04/27 02:29:32;;;;;;;26.77;14.10;;;2.40;99.90;;;;;;4968063;28;20042;-63
2022/04/27 02:31:58;;;;;;;22.50;12.60;;;2.30;99.90;;;;;;4961660;28;20042;-62
2022/04/27 02:34:23;;;;;;;143.40;12.27;;;2.30;99.90;;;;;;4970543;28;20031;-63
2022/04/27 02:36:49;;;;;;;52.83;11.38;;;2.20;99.90;;;;;;4972640;28;20038;-62
2022/04/27 02:39:14;;;;;;;24.23;12.60;;;2.20;99.90;;;;;;4961170;28;20154;-63
2022/04/27 02:41:41;;;;;;;22.55;12.80;;;2.20;99.90;;;;;;4960495;28;20042;-63
2022/04/27 02:44:06;;;;;;;21.48;12.27;;;2.20;99.90;;;;;;4972447;28;20409;-63
2022/04/27 02:46:32;;;;;;;20.17;11.90;;;2.20;99.90;;;;;;4962205;28;20486;-63
2022/04/27 02:51:51;;;;;;;23.27;13.50;;;2.10;99.90;;;;;;4972619;28;20050;-62
2022/04/27 02:54:22;;;;;;;17.65;10.82;;;2.20;99.90;;;;;;4965968;28;20043;-62
2022/04/27 02:56:48;;;;;;;23.70;13.20;;;2.30;99.90;;;;;;4961000;28;20054;-62
2022/04/27 03:09:34;;;;;;;22.10;9.60;;;2.50;99.90;;;;;;5165592;23;20102;-61
2022/04/27 03:12:00;;;;;;;30.67;15.85;;;2.40;99.90;;;;;;4964304;28;20298;-61
2022/04/27 03:14:27;;;;;;;62.30;13.48;;;2.20;99.90;;;;;;4960763;28;20108;-61
2022/04/27 03:16:52;;;;;;;21.25;11.70;;;2.10;99.90;;;;;;4957650;28;20043;-61
2022/04/27 03:19:19;;;;;;;27.30;14.93;;;2.20;99.90;;;;;;4968445;28;20090;-61
2022/04/27 03:21:44;;;;;;;23.45;14.13;;;2.20;99.90;;;;;;4955191;28;20042;-61
2022/04/27 03:36:59;;;;;;;25.95;12.73;;;2.10;99.90;;;;;;4952928;29;20047;-61
2022/04/27 03:39:25;;;;;;;21.67;12.77;;;2.10;99.90;;;;;;4950146;29;20095;-61
2022/04/27 03:49:37;;;;;;;21.83;12.23;;;2.30;99.90;;;;;;5867292;23;20059;-61
2022/04/27 03:52:02;;;;;;;21.80;11.85;;;2.30;99.90;;;;;;4974313;28;20109;-61
2022/04/27 04:40:52;;;;;;;25.75;14.18;;;3.00;99.90;;;;;;4934387;29;20091;-61
2022/04/27 05:06:36;;;;;;;24.77;13.93;;;3.50;99.90;;;;;;6024389;23;20865;-62
2022/04/27 05:14:13;;;;;;;24.45;15.18;;;3.60;99.90;;;;;;5821657;23;20058;-61
2022/04/27 05:16:39;;;;;;;22.60;13.98;;;3.60;99.90;;;;;;4978133;28;20104;-61
2022/04/27 05:19:04;;;;;;;28.55;14.20;;;3.70;99.90;;;;;;4979701;28;20073;-62
2022/04/27 05:21:30;;;;;;;32.72;16.05;;;3.80;99.90;;;;;;4970303;28;20050;-61
2022/04/27 05:34:30;;;;;;;32.47;15.10;;;4.20;99.90;;;;;;5800403;23;20745;-62
2022/04/27 05:36:56;;;;;;;33.50;15.38;;;4.30;99.90;;;;;;4987021;28;20487;-62
2022/04/27 05:39:22;;;;;;;33.38;15.15;;;4.40;99.90;;;;;;4985406;28;20097;-62
2022/04/27 05:54:44;;;;;;;30.25;15.93;;;5.10;99.90;;;;;;5683963;23;20055;-63
2022/04/27 05:57:10;;;;;;;42.92;15.90;;;5.30;99.90;;;;;;4954039;28;20038;-63
2022/04/27 05:59:35;;;;;;;39.80;16.95;;;5.50;99.90;;;;;;4955860;28;20074;-63
2022/04/27 06:02:01;;;;;;;31.77;15.77;;;5.60;99.90;;;;;;4961801;28;20405;-63
2022/04/27 06:04:26;;;;;;;36.53;16.60;;;5.80;99.90;;;;;;4953369;28;20039;-62
2022/04/27 06:09:27;;;;;;;28.65;16.08;;;6.20;99.90;;;;;;5663177;23;20060;-62
2022/04/27 06:11:53;;;;;;;36.92;15.35;;;6.30;99.90;;;;;;4967478;28;20050;-62
2022/04/27 06:50:41;;;;;;;21.98;12.30;;;8.00;99.90;;;;;;5735072;23;20049;-62
2022/04/27 07:08:46;;;;;;;19.08;10.70;;;8.60;99.90;;;;;;5875451;23;20047;-62
2022/04/27 07:11:12;;;;;;;18.58;9.75;;;8.80;99.90;;;;;;4959358;28;20050;-62
2022/04/27 07:44:35;;;;;;;12.98;6.93;;;10.10;99.90;;;;;;5550966;23;20026;-62
2022/04/27 07:57:15;;;;;;;7.90;4.93;;;10.60;99.90;;;;;;5845772;23;20046;-63
2022/04/27 08:12:39;;;;;;;7.20;3.88;;;11.00;99.90;;;;;;5710540;23;20235;-65
2022/04/27 08:24:27;;;;;;;4.95;3.60;;;11.10;99.90;;;;;;5013544;23;20125;-63
2022/04/27 08:26:53;;;;;;;5.13;3.20;;;11.20;99.90;;;;;;4950218;28;20051;-62
2022/04/27 08:29:19;;;;;;;6.22;3.53;;;11.30;99.90;;;;;;4937134;28;20384;-62
2022/04/27 08:31:44;;;;;;;4.97;3.30;;;11.30;99.90;;;;;;4941779;28;20766;-62
2022/04/27 08:34:10;;;;;;;4.53;3.03;;;11.40;99.90;;;;;;4934481;28;20066;-63
2022/04/27 08:36:35;;;;;;;4.18;2.47;;;11.50;99.90;;;;;;4946428;28;20133;-63
2022/04/27 08:57:09;;;;;;;21.30;4.00;;;12.10;99.90;;;;;;5922778;23;20054;-61
2022/04/27 08:59:35;;;;;;;14.50;3.60;;;12.10;99.90;;;;;;4939024;28;20047;-61
2022/04/27 09:02:24;;;;;;;5.97;3.15;;;12.20;99.90;;;;;;4940244;28;20113;-60
2022/04/27 09:05:18;;;;;;;5.70;3.13;;;12.20;98.90;;;;;;4954885;28;20058;-60
2022/04/27 09:07:45;;;;;;;5.88;3.17;;;12.10;97.40;;;;;;4948278;28;20044;-60
2022/04/27 09:10:13;;;;;;;5.28;3.58;;;12.00;99.80;;;;;;4960348;28;20370;-63
2022/04/27 09:12:52;;;;;;;6.70;3.50;;;12.00;99.90;;;;;;4946852;28;20147;-62
2022/04/27 09:15:21;;;;;;;5.45;3.40;;;12.20;99.40;;;;;;4947826;28;20047;-60
2022/04/27 09:20:55;;;;;;;7.18;4.22;;;12.20;99.90;;;;;;4952134;28;20059;-62
2022/04/27 09:23:23;;;;;;;6.60;3.65;;;12.20;99.90;;;;;;4939893;28;20134;-62
2022/04/27 09:25:55;;;;;;;6.55;3.95;;;12.20;99.90;;;;;;4947868;28;20210;-62
2022/04/27 09:28:31;;;;;;;7.45;3.60;;;12.30;99.90;;;;;;4942614;29;20129;-61
2022/04/27 09:30:59;;;;;;;6.07;3.67;;;12.50;99.90;;;;;;4918841;28;20043;-62
2022/04/27 09:33:36;;;;;;;5.32;3.80;;;12.60;99.90;;;;;;4939633;28;20035;-62
2022/04/27 09:36:19;;;;;;;7.20;3.95;;;12.60;98.40;;;;;;4937042;28;20078;-62
2022/04/27 09:38:44;;;;;;;8.43;3.53;;;12.70;97.80;;;;;;4931031;28;20083;-60
2022/04/27 09:41:10;;;;;;;7.00;3.55;;;12.80;99.90;;;;;;4947743;28;20070;-60
2022/04/27 09:43:46;;;;;;;5.95;3.75;;;12.90;99.30;;;;;;4935990;28;20028;-63
2022/04/27 09:46:22;;;;;;;7.47;3.45;;;12.80;97.00;;;;;;4942971;28;20035;-65
2022/04/27 09:49:11;;;;;;;5.80;3.90;;;12.90;94.30;;;;;;4949548;28;20490;-64
2022/04/27 09:51:46;;;;;;;6.20;3.58;;;12.80;95.10;;;;;;4938209;28;20545;-64
2022/04/27 09:54:16;;;;;;;5.28;3.50;;;12.80;98.80;;;;;;4948261;28;20399;-63
2022/04/27 09:56:43;;;;;;;6.63;3.33;;;13.00;98.50;;;;;;4949898;28;20039;-64
2022/04/27 09:59:10;;;;;;;6.35;3.67;;;13.00;97.80;;;;;;4944475;28;20058;-64
2022/04/27 10:01:37;;;;;;;7.82;3.10;;;13.10;99.10;;;;;;4927611;28;20498;-64
2022/04/27 10:04:04;;;;;;;5.88;3.28;;;13.10;98.20;;;;;;4949166;28;20094;-64
2022/04/27 10:06:30;;;;;;;5.15;3.30;;;13.10;97.30;;;;;;4949790;28;20039;-64
2022/04/27 10:08:59;;;;;;;5.38;3.30;;;13.20;98.00;;;;;;4945071;28;20043;-70
2022/04/27 10:11:31;;;;;;;4.82;3.38;;;13.10;97.10;;;;;;4929862;28;20058;-62
2022/04/27 10:13:56;;;;;;;6.43;2.97;;;13.00;95.60;;;;;;4948186;28;20079;-63
2022/04/27 10:16:26;;;;;;;7.13;3.55;;;13.20;96.80;;;;;;4934571;28;20151;-61
2022/04/27 10:18:52;;;;;;;4.90;3.22;;;13.30;94.40;;;;;;4939467;28;20070;-61
2022/04/27 10:21:55;;;;;;;8.27;3.30;;;13.60;97.90;;;;;;4948097;28;20046;-61
2022/04/27 10:24:46;;;;;;;6.90;3.20;;;13.70;91.70;;;;;;4927276;28;20046;-62
2022/04/27 10:27:20;;;;;;;6.25;3.45;;;13.60;86.20;;;;;;4930299;28;20043;-61
2022/04/27 10:29:57;;;;;;;8.18;4.18;;;13.80;95.40;;;;;;4931268;28;20638;-62
2022/04/27 10:32:36;;;;;;;10.52;3.85;;;14.30;97.30;;;;;;4945216;28;20043;-63
2022/04/27 10:35:19;;;;;;;15.50;3.50;;;14.40;86.50;;;;;;4949574;28;20050;-64
2022/04/27 10:37:57;;;;;;;5.07;3.30;;;14.50;93.60;;;;;;4948988;28;20498;-63
2022/04/27 10:40:29;;;;;;;5.32;3.40;;;14.60;92.10;;;;;;4944902;28;20051;-63
2022/04/27 10:43:11;;;;;;;6.47;3.30;;;14.60;94.70;;;;;;4939791;28;20132;-63
2022/04/27 10:45:42;;;;;;;5.28;2.92;;;14.60;93.90;;;;;;4948112;29;20505;-63
2022/04/27 10:48:27;;;;;;;6.63;3.23;;;14.40;83.80;;;;;;4948939;28;20521;-63
2022/04/27 10:51:07;;;;;;;8.77;3.67;;;14.10;91.30;;;;;;4944502;28;20868;-62
2022/04/27 10:53:40;;;;;;;7.70;3.25;;;13.90;90.20;;;;;;4946071;28;20114;-63
2022/04/27 10:56:25;;;;;;;7.00;2.92;;;13.70;90.20;;;;;;4948367;28;20133;-63
2022/04/27 10:58:52;;;;;;;5.20;2.75;;;13.80;87.60;;;;;;4934259;28;20433;-63
2022/04/27 11:01:23;;;;;;;6.32;3.20;;;13.90;92.70;;;;;;4947539;28;20039;-64
2022/04/27 11:04:06;;;;;;;8.85;3.30;;;13.90;91.70;;;;;;4946642;28;20119;-62
2022/04/27 11:07:17;;;;;;;8.20;3.95;;;14.30;90.30;;;;;;4945907;29;20039;-63
2022/04/27 11:10:14;;;;;;;8.23;3.60;;;14.50;90.50;;;;;;4871749;29;20048;-63
2022/04/27 11:12:43;;;;;;;4.88;3.28;;;14.80;85.40;;;;;;4942468;28;20047;-63
2022/04/27 11:15:11;;;;;;;5.88;3.65;;;14.70;89.80;;;;;;4943433;28;20043;-63
2022/04/27 11:17:38;;;;;;;6.15;3.45;;;14.70;93.20;;;;;;4947225;28;20498;-62
2022/04/27 11:20:05;;;;;;;8.25;3.60;;;14.60;92.20;;;;;;4948762;28;20035;-62
2022/04/27 11:22:39;;;;;;;5.93;3.50;;;14.60;93.40;;;;;;4943387;29;20102;-63
2022/04/27 11:25:07;;;;;;;8.57;3.55;;;14.60;90.60;;;;;;4931700;29;20035;-63
2022/04/27 11:27:35;;;;;;;7.28;3.08;;;14.70;92.10;;;;;;4952947;28;20043;-62
2022/04/27 11:30:03;;;;;;;6.88;3.50;;;14.60;91.00;;;;;;4952792;28;20082;-62
2022/04/27 11:32:29;;;;;;;6.85;3.42;;;14.60;91.10;;;;;;4932286;28;20039;-62
2022/04/27 11:34:54;;;;;;;8.23;3.58;;;14.40;92.20;;;;;;4951997;28;20066;-63
2022/04/27 11:37:21;;;;;;;5.10;3.22;;;14.60;92.10;;;;;;4941319;28;20043;-62
2022/04/27 11:39:49;;;;;;;6.10;3.20;;;14.70;91.20;;;;;;4950548;28;20042;-63
2022/04/27 11:42:16;;;;;;;6.20;3.35;;;14.90;92.10;;;;;;4951657;28;20035;-63
2022/04/27 11:44:58;;;;;;;5.28;3.50;;;14.90;90.30;;;;;;4947096;28;20637;-63
2022/04/27 11:47:31;;;;;;;6.13;3.38;;;15.00;89.60;;;;;;4938087;28;20066;-62
2022/04/27 11:50:01;;;;;;;8.23;3.35;;;15.10;88.00;;;;;;4940182;28;20048;-62
2022/04/27 11:52:28;;;;;;;8.27;3.78;;;15.10;84.90;;;;;;4944688;28;20810;-62
2022/04/27 11:55:08;;;;;;;8.10;3.88;;;15.20;90.70;;;;;;4943015;28;20494;-62
2022/04/27 11:57:33;;;;;;;6.07;3.40;;;15.20;87.90;;;;;;4949314;28;20474;-62
2022/04/27 11:59:59;;;;;;;6.18;3.28;;;15.20;90.00;;;;;;4950720;28;20047;-63
2022/04/27 12:02:25;;;;;;;6.22;3.55;;;15.20;91.90;;;;;;4950359;28;20058;-62
2022/04/27 12:04:58;;;;;;;6.32;3.38;;;14.90;86.60;;;;;;4938407;28;20494;-62
2022/04/27 12:07:24;;;;;;;7.97;3.53;;;14.90;89.20;;;;;;4940336;28;20707;-62
2022/04/27 12:09:57;;;;;;;6.55;3.75;;;14.80;88.30;;;;;;4951635;28;20507;-62
2022/04/27 12:12:23;;;;;;;5.60;3.45;;;14.60;83.30;;;;;;4948164;28;20054;-62
2022/04/27 12:14:49;;;;;;;6.30;3.50;;;14.70;89.70;;;;;;4939975;28;20044;-63
2022/04/27 12:17:41;;;;;;;8.90;3.75;;;15.00;86.10;;;;;;4950896;28;20035;-62
2022/04/27 12:20:07;;;;;;;7.43;3.70;;;15.20;65.90;;;;;;4948821;28;20079;-63
2022/04/27 12:22:32;;;;;;;6.68;3.88;;;15.50;81.90;;;;;;4947299;28;20035;-63
2022/04/27 12:25:05;;;;;;;5.68;4.00;;;15.90;81.50;;;;;;4943295;28;20046;-62
2022/04/27 12:27:31;;;;;;;8.63;3.70;;;16.20;92.20;;;;;;4953833;28;20417;-62
2022/04/27 12:30:07;;;;;;;8.15;3.92;;;16.20;85.00;;;;;;4962932;28;20534;-63
2022/04/27 12:32:33;;;;;;;8.00;3.45;;;16.30;77.90;;;;;;4946504;28;20174;-62
2022/04/27 12:37:54;;;;;;;4.60;3.33;;;16.20;66.60;;;;;;4944980;28;20052;-63
2022/04/27 12:40:20;;;;;;;6.72;3.85;;;16.10;70.50;;;;;;4943137;28;20093;-62
2022/04/27 12:43:06;;;;;;;7.68;3.58;;;16.40;78.90;;;;;;4950605;28;20062;-62
2022/04/27 12:45:35;;;;;;;7.47;3.70;;;16.40;66.40;;;;;;4943555;29;21003;-62
2022/04/27 12:48:04;;;;;;;7.20;3.72;;;15.90;76.50;;;;;;4933080;28;20138;-62
2022/04/27 12:50:34;;;;;;;8.25;3.92;;;15.70;78.40;;;;;;4942222;29;20039;-63
2022/04/27 12:53:09;;;;;;;6.10;3.53;;;15.50;75.20;;;;;;4950855;28;20106;-62
2022/04/27 12:55:35;;;;;;;8.13;3.75;;;15.40;66.40;;;;;;4936479;28;20035;-62
2022/04/27 12:58:01;;;;;;;8.88;3.85;;;15.80;71.00;;;;;;4938270;28;20031;-63
2022/04/27 13:00:46;;;;;;;6.72;3.70;;;16.40;72.70;;;;;;4949489;28;20046;-62
2022/04/27 13:03:13;;;;;;;7.22;3.78;;;16.50;66.10;;;;;;4944464;28;20074;-62
2022/04/27 13:05:43;;;;;;;8.00;3.70;;;16.70;69.90;;;;;;4951248;28;20035;-62
2022/04/27 13:08:10;;;;;;;8.50;3.70;;;17.00;68.80;;;;;;4933399;29;20043;-62
2022/04/27 13:13:22;;;;;;;8.63;3.72;;;16.90;72.20;;;;;;4942969;28;20425;-62
2022/04/27 13:15:49;;;;;;;10.90;4.00;;;16.40;64.60;;;;;;4948328;28;20070;-62
2022/04/27 13:18:15;;;;;;;9.35;3.95;;;16.00;72.40;;;;;;4947133;28;20066;-62
2022/04/27 13:20:42;;;;;;;8.98;4.22;;;15.70;75.10;;;;;;4945269;29;20087;-62
2022/04/27 13:23:09;;;;;;;6.15;4.03;;;15.40;74.20;;;;;;4944897;28;20119;-62
2022/04/27 13:25:35;;;;;;;7.13;3.60;;;15.40;80.60;;;;;;4948521;28;20046;-62
2022/04/27 13:28:00;;;;;;;7.07;3.60;;;15.20;85.50;;;;;;4926107;29;20039;-62
2022/04/27 13:30:26;;;;;;;8.13;3.97;;;14.90;78.00;;;;;;4943530;28;20118;-62
2022/04/27 13:32:52;;;;;;;8.65;3.90;;;14.70;81.00;;;;;;4948770;28;20050;-62
2022/04/27 13:35:18;;;;;;;5.72;3.60;;;14.70;80.00;;;;;;4925636;29;20670;-63
2022/04/27 13:37:44;;;;;;;8.75;3.90;;;14.50;80.50;;;;;;4933472;28;20095;-62
2022/04/27 13:40:11;;;;;;;10.23;4.30;;;14.30;80.20;;;;;;4943144;28;20050;-62
2022/04/27 13:42:38;;;;;;;7.70;3.95;;;14.20;81.10;;;;;;4949316;28;20031;-62
2022/04/27 13:45:05;;;;;;;10.07;3.60;;;14.30;87.80;;;;;;4941185;28;20082;-64
2022/04/27 13:47:33;;;;;;;5.95;3.80;;;14.40;85.90;;;;;;4945337;28;20102;-64
2022/04/27 13:49:58;;;;;;;10.45;4.22;;;14.30;86.10;;;;;;4949258;28;20726;-63
2022/04/27 13:52:24;;;;;;;6.90;3.78;;;14.30;88.50;;;;;;4949374;28;20129;-62
2022/04/27 13:54:49;;;;;;;5.88;3.85;;;14.40;90.60;;;;;;4919850;28;20078;-62
2022/04/27 13:57:15;;;;;;;8.07;4.30;;;14.40;86.50;;;;;;4930890;28;20039;-63
2022/04/27 13:59:40;;;;;;;6.97;4.10;;;14.60;83.00;;;;;;4937466;28;20040;-61
2022/04/27 14:02:08;;;;;;;7.95;4.22;;;15.40;75.80;;;;;;4938911;28;20031;-62
2022/04/27 14:04:34;;;;;;;7.63;4.40;;;15.90;81.80;;;;;;4935014;28;20482;-63
2022/04/27 14:06:59;;;;;;;6.75;4.20;;;16.40;77.70;;;;;;4943875;28;20126;-62
2022/04/27 14:09:25;;;;;;;9.23;4.43;;;16.60;70.90;;;;;;4939978;28;20193;-62
2022/04/27 14:14:37;;;;;;;9.13;4.13;;;17.10;77.60;;;;;;4949488;28;20051;-62
2022/04/27 14:19:47;;;;;;;6.63;3.47;;;17.20;72.00;;;;;;4937616;28;20069;-62
2022/04/27 14:22:13;;;;;;;7.95;4.28;;;16.70;71.00;;;;;;4949591;28;20744;-62
2022/04/27 14:24:38;;;;;;;6.53;4.20;;;17.00;79.40;;;;;;4949491;28;20047;-62
2022/04/27 14:27:05;;;;;;;14.27;4.45;;;17.10;74.00;;;;;;4944216;28;20530;-63
2022/04/27 14:29:31;;;;;;;7.68;3.92;;;17.40;73.70;;;;;;4944238;28;20043;-62
2022/04/27 14:32:01;;;;;;;9.40;4.20;;;17.30;76.30;;;;;;4942865;28;20050;-63
2022/04/27 14:34:30;;;;;;;10.30;4.10;;;17.20;80.20;;;;;;4930075;28;20084;-63
2022/04/27 14:36:56;;;;;;;9.38;4.50;;;17.00;78.20;;;;;;4944040;28;20039;-62
2022/04/27 14:39:22;;;;;;;9.80;4.07;;;17.10;75.80;;;;;;4949233;28;20071;-63
2022/04/27 14:41:48;;;;;;;10.45;4.45;;;17.40;73.20;;;;;;4949006;29;20122;-63
2022/04/27 14:44:14;;;;;;;8.13;4.20;;;17.60;75.70;;;;;;4936621;28;20039;-63
2022/04/27 14:46:40;;;;;;;8.02;4.43;;;18.00;72.40;;;;;;4928524;28;20044;-63
2022/04/27 14:49:06;;;;;;;10.63;4.88;;;18.00;73.10;;;;;;4944789;28;20074;-62
2022/04/27 14:51:32;;;;;;;8.23;4.30;;;18.30;72.90;;;;;;4928822;28;20098;-64
2022/04/27 14:53:58;;;;;;;6.93;4.15;;;18.30;69.40;;;;;;4931337;28;20047;-72
2022/04/27 14:56:24;;;;;;;9.20;4.40;;;18.50;66.50;;;;;;4948876;28;20043;-66
2022/04/27 14:58:49;;;;;;;9.68;4.35;;;18.10;68.40;;;;;;4936468;28;20130;-67
2022/04/27 15:01:15;;;;;;;12.10;4.43;;;17.60;65.90;;;;;;4948792;28;20039;-67
2022/04/27 15:03:41;;;;;;;8.00;4.32;;;17.70;65.40;;;;;;4952693;28;20051;-64
2022/04/27 15:06:07;;;;;;;10.75;4.50;;;17.60;62.50;;;;;;4946835;28;20031;-62
2022/04/27 15:08:33;;;;;;;9.88;4.07;;;18.00;61.40;;;;;;4940021;28;20751;-63
2022/04/27 15:11:00;;;;;;;7.63;4.15;;;17.90;63.00;;;;;;4989578;23;20136;-59
2022/04/27 15:14:00;;;;;;;10.57;4.35;;;18.30;61.50;;;;;;4983041;28;20080;-59
2022/04/27 15:24:47;;;;;;;11.35;4.20;;;17.20;60.60;;;;;;5010033;23;20062;-58
2022/04/27 15:32:24;;;;;;;9.93;4.20;;;16.20;66.10;;;;;;5900601;23;20014;-59
2022/04/27 15:34:50;;;;;;;11.18;4.43;;;16.10;69.20;;;;;;4960114;28;20055;-59
2022/04/27 15:37:17;;;;;;;8.93;4.40;;;16.00;68.50;;;;;;4968132;28;20125;-59
2022/04/27 15:39:43;;;;;;;9.30;4.50;;;16.00;69.70;;;;;;4972203;28;20122;-58
2022/04/27 15:42:08;;;;;;;12.15;4.35;;;16.00;74.60;;;;;;4956779;28;20122;-58
2022/04/27 15:44:35;;;;;;;9.45;4.15;;;15.80;70.10;;;;;;4951342;28;20042;-59
2022/04/27 15:57:22;;;;;;;8.82;3.97;;;14.90;81.40;;;;;;5029950;23;20051;-59
2022/04/27 16:29:03;;;;;;;8.45;3.80;;;18.20;56.40;;;;;;5729202;23;20048;-60
2022/04/27 16:31:28;;;;;;;13.75;3.90;;;18.30;56.10;;;;;;4935786;28;20043;-59
2022/04/27 16:33:54;;;;;;;12.20;3.90;;;18.50;54.50;;;;;;4944544;29;20044;-58
2022/04/27 16:36:20;;;;;;;8.90;3.60;;;18.90;55.20;;;;;;4966342;28;20043;-59
2022/04/27 16:38:46;;;;;;;7.85;3.70;;;18.90;54.30;;;;;;4953199;28;20134;-61
2022/04/27 16:41:13;;;;;;;11.45;4.20;;;19.10;53.60;;;;;;4947499;28;20081;-63
2022/04/27 16:46:14;;;;;;;8.70;3.78;;;18.90;53.00;;;;;;5776233;23;20027;-59
2022/04/27 16:52:21;;;;;;;11.70;4.30;;;19.00;50.80;;;;;;5376880;23;20012;-59
2022/04/27 16:54:47;;;;;;;11.55;3.80;;;18.70;52.30;;;;;;5036437;23;20026;-59
2022/04/27 16:57:14;;;;;;;8.48;4.00;;;18.80;53.40;;;;;;4935380;29;20047;-59
2022/04/27 17:02:09;;;;;;;10.95;4.20;;;18.90;51.90;;;;;;4927684;29;20039;-59
2022/04/27 17:07:10;;;;;;;9.50;4.00;;;18.80;51.60;;;;;;5180228;23;20145;-62
2022/04/27 17:09:35;;;;;;;9.77;4.05;;;19.10;53.10;;;;;;4969491;28;20042;-62
2022/04/27 17:12:01;;;;;;;10.02;4.22;;;19.10;51.70;;;;;;4970427;28;20050;-62
2022/04/27 17:20:46;;;;;;;9.52;4.15;;;16.90;54.20;;;;;;4979099;23;20573;-60
2022/04/27 17:33:21;;;;;;;10.75;5.00;;;14.20;84.30;;;;;;5104001;23;20046;-58
2022/04/27 17:36:11;;;;;;;9.65;4.97;;;13.80;80.50;;;;;;4994000;28;20038;-58
2022/04/27 17:38:43;;;;;;;9.57;5.40;;;13.60;87.30;;;;;;4941904;28;20047;-61
2022/04/27 17:41:09;;;;;;;9.20;5.00;;;13.40;85.50;;;;;;5000247;23;20027;-61
2022/04/27 17:44:05;;;;;;;8.48;4.30;;;13.20;86.30;;;;;;4991172;28;20082;-62
2022/04/27 17:46:39;;;;;;;9.25;4.63;;;13.20;89.70;;;;;;4952010;28;20066;-60
2022/04/27 17:49:05;;;;;;;8.60;4.20;;;13.00;86.40;;;;;;4963551;28;20043;-60
2022/04/27 17:52:05;;;;;;;11.32;4.65;;;13.00;86.50;;;;;;5201217;23;20010;-60
2022/04/27 17:54:45;;;;;;;9.00;4.75;;;13.00;92.00;;;;;;4941196;28;20051;-61
2022/04/27 17:57:11;;;;;;;14.20;5.60;;;12.90;86.40;;;;;;4973351;28;20035;-60
2022/04/27 17:59:36;;;;;;;15.18;4.78;;;12.90;86.10;;;;;;4992188;28;20482;-61
2022/04/27 18:02:02;;;;;;;9.77;5.60;;;12.90;86.50;;;;;;5050543;23;20051;-60
2022/04/27 18:04:58;;;;;;;10.05;5.80;;;12.90;86.00;;;;;;4966748;28;20075;-61
2022/04/27 18:07:31;;;;;;;11.10;5.30;;;12.80;92.60;;;;;;4952140;28;20038;-60
2022/04/27 18:09:57;;;;;;;11.88;5.63;;;12.90;87.40;;;;;;4969225;28;20038;-60
2022/04/27 18:16:30;;;;;;;13.18;5.15;;;12.90;92.60;;;;;;4901352;29;20041;-61
2022/04/27 18:19:34;;;;;;;8.95;4.97;;;12.80;92.00;;;;;;4892634;29;20102;-61
2022/04/27 18:21:59;;;;;;;12.68;4.40;;;12.80;87.00;;;;;;4916697;28;20754;-61
2022/04/27 18:27:01;;;;;;;10.75;5.15;;;12.70;88.20;;;;;;5242993;23;20054;-62
2022/04/27 18:29:27;;;;;;;12.75;4.53;;;12.70;88.90;;;;;;5181959;23;20008;-61
2022/04/27 18:34:28;;;;;;;8.88;3.90;;;12.50;89.40;;;;;;6146790;23;20110;-61
2022/04/27 18:53:32;;;;;;;14.38;5.90;;;11.40;93.80;;;;;;5320738;23;20051;-61
2022/04/27 18:56:58;;;;;;;11.73;5.70;;;11.10;97.30;;;;;;5009684;23;20058;-62
2022/04/27 19:11:34;;;;;;;10.77;5.65;;;10.10;96.40;;;;;;5396496;23;20058;-60
2022/04/27 19:24:21;;;;;;;8.48;5.13;;;9.00;98.70;;;;;;5121914;23;20062;-61
2022/04/27 19:32:00;;;;;;;13.85;5.22;;;8.50;99.90;;;;;;5228005;23;20408;-60
2022/04/27 19:48:50;;;;;;;16.73;6.00;;;8.00;99.90;;;;;;5415069;23;20050;-60
2022/04/27 19:54:06;;;;;;;13.93;5.82;;;8.10;99.90;;;;;;5764704;23;19922;-60
2022/04/27 19:56:32;;;;;;;13.45;5.70;;;8.10;99.90;;;;;;4950287;28;20047;-61
2022/04/27 20:01:44;;;;;;;11.57;5.82;;;7.90;99.90;;;;;;5977375;23;20017;-60
2022/04/27 20:04:09;;;;;;;9.48;6.10;;;7.80;99.90;;;;;;4972843;28;20421;-60
2022/04/27 20:06:35;;;;;;;12.32;6.10;;;8.00;99.90;;;;;;4975251;28;20046;-60
2022/04/27 20:09:01;;;;;;;16.52;6.20;;;8.00;99.90;;;;;;4971757;28;20035;-60
2022/04/27 20:11:26;;;;;;;12.13;5.75;;;8.10;99.90;;;;;;4974811;28;20035;-60
2022/04/27 20:13:53;;;;;;;12.30;5.30;;;8.00;99.90;;;;;;4956732;28;20109;-60